Montgomery Township, Pennsylvania
Current Conditions -  °F | °C
As of 10:55 AM on Friday 24 Oct 2014 (Local Time) from KLOM Reporting Station
Clear Clear  
Wind Chill: 63°   Ceiling: Unl
Heat Index: 63°   Visibility: 10mi
Dew Point: 45°   Wind: 10mph
Humidity: 52%   Direction: 330°NNW
Pressure: 29.86"   Gusts: 20mph
Location:  40.2226°N, 75.2413°W
Report Text: KLOM 241455Z AUTO 33009G17KT 290V010 10SM CLR 17/07 A2986 RMK AO1
Loading
Personal Weather Stations






























Interactive Weather Map
Tropical Storm Tracking
New forecast layout! Learn more

10-Day Weather Forecast

Advertisements
Track Severe Weather on mobile